createdAt,value
2023-05-23T00:01:14.764Z,101239.13
2023-05-23T00:03:42.809Z,101246.88
2023-05-23T00:06:10.689Z,101242.94
2023-05-23T00:08:38.456Z,101238.78
2023-05-23T00:11:06.281Z,101231.22
2023-05-23T00:13:35.868Z,101233.47
2023-05-23T00:16:03.717Z,101224.38
2023-05-23T00:18:31.656Z,101215.31
2023-05-23T00:21:00.015Z,101218.94
2023-05-23T00:23:29.656Z,101215.25
2023-05-23T00:25:58.582Z,101206.28
2023-05-23T00:28:27.167Z,101196.91
2023-05-23T00:30:56.329Z,101198.56
2023-05-23T00:33:24.098Z,101193.50
2023-05-23T00:35:51.910Z,101196.56
2023-05-23T00:38:20.209Z,101195.09
2023-05-23T00:40:48.231Z,101187.75
2023-05-23T00:43:16.123Z,101198.69
2023-05-23T00:45:43.906Z,101192.84
2023-05-23T00:48:13.097Z,101192.78
2023-05-23T00:50:41.622Z,101201.94
2023-05-23T00:53:09.600Z,101197.28
2023-05-23T00:55:39.587Z,101194.06
2023-05-23T00:58:07.839Z,101193.00
2023-05-23T01:00:35.952Z,101199.44
2023-05-23T01:03:05.031Z,101198.28
2023-05-23T01:05:34.241Z,101196.00
2023-05-23T01:08:03.376Z,101192.91
2023-05-23T01:10:32.248Z,101189.47
2023-05-23T01:13:11.075Z,101191.63
2023-05-23T01:15:43.581Z,101187.28
2023-05-23T01:18:16.431Z,101192.88
2023-05-23T01:20:52.046Z,101192.16
2023-05-23T01:24:05.059Z,101200.41
2023-05-23T01:26:41.823Z,101192.66
2023-05-23T01:29:14.770Z,101179.16
2023-05-23T01:31:45.404Z,101182.38
2023-05-23T01:34:14.902Z,101171.00
2023-05-23T01:36:44.608Z,101169.91
2023-05-23T01:39:12.533Z,101161.53
2023-05-23T01:41:41.004Z,101171.75
2023-05-23T01:44:09.076Z,101158.91
2023-05-23T01:46:39.960Z,101151.84
2023-05-23T01:49:10.753Z,101126.78
2023-05-23T01:51:39.380Z,101125.78
2023-05-23T01:54:07.515Z,101105.41
2023-05-23T01:56:36.314Z,101095.53
2023-05-23T01:59:04.377Z,101108.31
2023-05-23T02:01:32.445Z,101123.88
2023-05-23T02:04:01.680Z,101105.03
2023-05-23T02:06:29.542Z,101101.03
2023-05-23T02:08:57.305Z,101133.78
2023-05-23T02:11:25.096Z,101160.34
2023-05-23T02:13:52.852Z,101153.03
2023-05-23T02:16:20.592Z,101139.22
2023-05-23T02:18:49.297Z,101141.22
2023-05-23T02:21:18.536Z,101146.63
2023-05-23T02:23:46.332Z,101148.22
2023-05-23T02:26:14.131Z,101153.69
2023-05-23T02:28:42.320Z,101145.19
2023-05-23T02:31:10.094Z,101140.94
2023-05-23T02:33:38.016Z,101141.28
2023-05-23T02:36:06.934Z,101123.09
2023-05-23T02:38:36.091Z,101119.47
2023-05-23T02:41:03.914Z,101110.53
2023-05-23T02:43:31.695Z,101102.84
2023-05-23T02:45:59.486Z,101101.19
2023-05-23T02:48:27.259Z,101102.47
2023-05-23T02:50:55.234Z,101095.72
2023-05-23T02:53:23.290Z,101090.25
2023-05-23T02:55:52.418Z,101085.25
2023-05-23T02:58:20.832Z,101088.31
2023-05-23T03:00:48.680Z,101083.22
2023-05-23T03:03:17.671Z,101086.09
2023-05-23T03:05:45.511Z,101086.41
2023-05-23T03:08:13.306Z,101091.28
2023-05-23T03:10:41.058Z,101093.41
2023-05-23T03:13:10.190Z,101101.00
2023-05-23T03:15:38.043Z,101096.94
2023-05-23T03:18:05.995Z,101073.53
2023-05-23T03:20:33.785Z,101069.47
2023-05-23T03:23:01.665Z,101072.50
2023-05-23T03:25:29.432Z,101057.81
2023-05-23T03:27:57.180Z,101061.31
2023-05-23T03:30:26.317Z,101065.28
2023-05-23T03:32:54.284Z,101055.13
2023-05-23T03:35:22.090Z,101062.09
2023-05-23T03:37:49.866Z,101062.88
2023-05-23T03:40:17.594Z,101045.84
2023-05-23T03:42:45.332Z,101043.78
2023-05-23T03:45:13.080Z,101028.53
2023-05-23T03:47:42.963Z,101034.81
2023-05-23T03:50:11.733Z,101020.47
2023-05-23T03:52:39.484Z,101006.81
2023-05-23T03:55:09.418Z,101001.38
2023-05-23T03:57:37.143Z,100996.66
2023-05-23T04:00:06.382Z,100999.00
2023-05-23T04:02:34.232Z,101007.25
2023-05-23T04:05:03.409Z,101008.69
2023-05-23T04:07:34.566Z,101023.25
2023-05-23T04:10:02.400Z,100994.81
2023-05-23T04:12:31.427Z,101001.47
2023-05-23T04:14:59.184Z,101022.09
2023-05-23T04:17:30.723Z,101033.97
2023-05-23T04:19:58.867Z,101030.00
2023-05-23T04:22:27.990Z,101032.38
2023-05-23T04:24:55.744Z,101044.75
2023-05-23T04:27:26.059Z,101037.44
2023-05-23T04:29:53.832Z,101066.38
2023-05-23T04:32:23.096Z,101066.84
2023-05-23T04:34:51.128Z,101060.19
2023-05-23T04:37:22.178Z,101075.09
2023-05-23T04:39:51.372Z,101074.66
2023-05-23T04:42:24.310Z,101072.72
2023-05-23T04:44:52.830Z,101067.94
2023-05-23T04:47:20.783Z,101065.56
2023-05-23T04:49:48.819Z,101062.81
2023-05-23T04:52:19.078Z,101066.13
2023-05-23T04:54:48.879Z,101072.56
2023-05-23T04:57:18.274Z,101074.50
2023-05-23T04:59:46.553Z,101067.25
2023-05-23T05:02:14.360Z,101075.53
2023-05-23T05:04:42.140Z,101072.19
2023-05-23T05:07:09.892Z,101069.09
2023-05-23T05:09:37.702Z,101074.47
2023-05-23T05:12:05.675Z,101080.06
2023-05-23T05:14:34.776Z,101085.72
2023-05-23T05:17:02.843Z,101087.41
2023-05-23T05:19:31.890Z,101085.03
2023-05-23T05:22:00.231Z,101064.59
2023-05-23T05:24:29.034Z,101049.03
2023-05-23T05:26:57.943Z,101034.94
2023-05-23T05:29:25.757Z,101038.00
2023-05-23T05:31:55.103Z,101048.41
2023-05-23T05:34:22.979Z,101059.63
2023-05-23T05:36:50.708Z,101068.44
2023-05-23T05:39:18.475Z,101061.25
2023-05-23T05:41:46.210Z,101064.28
2023-05-23T05:44:13.958Z,101060.91
2023-05-23T05:46:41.819Z,101062.50
2023-05-23T05:49:12.484Z,101046.97
2023-05-23T05:51:40.446Z,101039.91
2023-05-23T05:54:08.712Z,101037.25
2023-05-23T05:56:36.577Z,101024.16
2023-05-23T05:59:04.346Z,101012.31
2023-05-23T06:01:32.114Z,101009.56
2023-05-23T06:04:00.015Z,101008.75
2023-05-23T06:06:29.483Z,101015.63
2023-05-23T06:08:57.269Z,101011.09
2023-05-23T06:11:25.021Z,101021.53
2023-05-23T06:13:52.786Z,101007.94
2023-05-23T06:16:20.646Z,100996.75
2023-05-23T06:18:48.438Z,100997.75
2023-05-23T06:21:16.246Z,101020.91
2023-05-23T06:23:45.913Z,101018.38
2023-05-23T06:26:13.938Z,100998.31
2023-05-23T06:28:41.850Z,100985.91
2023-05-23T06:31:10.909Z,100996.94
2023-05-23T06:33:38.732Z,101007.41
2023-05-23T06:36:06.746Z,101011.09
2023-05-23T06:38:34.661Z,101018.25
2023-05-23T06:41:04.412Z,101010.63
2023-05-23T06:43:32.164Z,101024.28
2023-05-23T06:45:59.985Z,101034.81
2023-05-23T06:48:27.773Z,101042.41
2023-05-23T06:50:55.704Z,101038.25
2023-05-23T06:53:23.534Z,101051.31
2023-05-23T06:55:51.284Z,101052.00
2023-05-23T06:58:20.446Z,101041.25
2023-05-23T07:00:48.243Z,101046.34
2023-05-23T07:03:16.716Z,101042.72
2023-05-23T07:05:44.846Z,101041.25
2023-05-23T07:08:13.156Z,101033.56
2023-05-23T07:10:41.675Z,101033.13
2023-05-23T07:13:09.846Z,101040.34
2023-05-23T07:15:39.023Z,101017.94
2023-05-23T07:18:06.890Z,101033.78
2023-05-23T07:20:35.172Z,101034.84
2023-05-23T07:23:02.937Z,101030.03
2023-05-23T07:25:30.742Z,101026.91
2023-05-23T07:27:58.707Z,101027.97
2023-05-23T07:30:26.477Z,101027.91
2023-05-23T07:32:55.705Z,101025.13
2023-05-23T07:35:26.130Z,100997.88
2023-05-23T07:37:54.162Z,101004.72
2023-05-23T07:40:22.503Z,101023.69
2023-05-23T07:42:50.318Z,101005.72
2023-05-23T07:45:18.082Z,100998.72
2023-05-23T07:47:45.890Z,101001.53
2023-05-23T07:50:15.067Z,101012.63
2023-05-23T07:52:43.013Z,101014.69
2023-05-23T07:55:11.193Z,101003.53
2023-05-23T07:57:38.987Z,101002.91
2023-05-23T08:00:09.832Z,101001.69
2023-05-23T08:02:37.697Z,100993.78
2023-05-23T08:05:05.964Z,100955.97
2023-05-23T08:07:35.093Z,100926.19
2023-05-23T08:10:02.851Z,100916.31
2023-05-23T08:12:30.646Z,100916.59
2023-05-23T08:14:58.405Z,100860.81
2023-05-23T08:17:27.097Z,100890.41
2023-05-23T08:19:55.138Z,100869.72
2023-05-23T08:22:22.909Z,100883.59
2023-05-23T08:24:52.069Z,100845.31
2023-05-23T08:27:19.841Z,100813.22
2023-05-23T08:29:48.215Z,100813.94
2023-05-23T08:32:16.059Z,100819.63
2023-05-23T08:34:44.052Z,100797.66
2023-05-23T08:37:11.838Z,100745.94
2023-05-23T08:39:39.753Z,100765.56
2023-05-23T08:42:09.222Z,100752.56
2023-05-23T08:44:37.081Z,100731.00
2023-05-23T08:47:06.519Z,100696.06
2023-05-23T08:49:34.952Z,100707.88
2023-05-23T08:52:04.656Z,100695.63
2023-05-23T08:54:33.140Z,100696.28
2023-05-23T08:57:00.984Z,100726.63
2023-05-23T08:59:31.299Z,100718.00
2023-05-23T09:01:59.679Z,100725.09
2023-05-23T09:04:29.175Z,100791.09
2023-05-23T09:06:58.132Z,100855.03
2023-05-23T09:09:27.028Z,100907.59
2023-05-23T09:11:57.041Z,100974.84
2023-05-23T09:14:24.832Z,100980.47
2023-05-23T09:16:54.042Z,100992.72
2023-05-23T09:19:21.976Z,101007.22
2023-05-23T09:21:50.700Z,100996.75
2023-05-23T09:24:18.571Z,101012.06
2023-05-23T09:26:48.339Z,100995.94
2023-05-23T09:29:21.520Z,100987.94
2023-05-23T09:31:49.489Z,100999.63
2023-05-23T09:34:18.768Z,101048.16
2023-05-23T09:36:47.949Z,101067.44
2023-05-23T09:39:15.818Z,101058.34
2023-05-23T09:41:43.795Z,101061.19
2023-05-23T09:44:11.695Z,101089.50
2023-05-23T09:46:39.593Z,101085.06
2023-05-23T09:49:19.040Z,101084.16
2023-05-23T09:51:58.864Z,101089.31
2023-05-23T09:54:26.806Z,101079.75
2023-05-23T09:56:57.171Z,101079.41
2023-05-23T09:59:28.385Z,101085.69
2023-05-23T10:01:58.354Z,101099.41
2023-05-23T10:04:35.498Z,101106.97
2023-05-23T10:07:08.603Z,101089.91
2023-05-23T10:09:40.662Z,101075.00
2023-05-23T10:12:42.574Z,101074.78
2023-05-23T10:15:12.395Z,101069.63
2023-05-23T10:17:53.638Z,101103.94
2023-05-23T10:20:27.224Z,101094.84
2023-05-23T10:22:56.069Z,101086.16
2023-05-23T10:25:23.991Z,101106.53
2023-05-23T10:27:54.226Z,101091.41
2023-05-23T10:30:22.363Z,101130.34
2023-05-23T10:32:51.233Z,101133.84
2023-05-23T10:35:26.367Z,101108.03
2023-05-23T10:38:01.028Z,101114.06
2023-05-23T10:40:35.878Z,101121.44
2023-05-23T10:43:08.890Z,101102.00
2023-05-23T10:45:43.549Z,101062.84
2023-05-23T10:48:25.153Z,101078.59
2023-05-23T10:51:08.101Z,101082.59
2023-05-23T10:53:37.584Z,101063.38
2023-05-23T10:56:09.540Z,101076.50
2023-05-23T10:58:38.501Z,101048.38
2023-05-23T11:01:09.250Z,101066.25
2023-05-23T11:03:39.352Z,101055.88
2023-05-23T11:06:29.083Z,101057.91
2023-05-23T11:09:07.001Z,101041.16
2023-05-23T11:11:57.878Z,101081.13
2023-05-23T11:14:55.279Z,101072.78
2023-05-23T11:17:32.666Z,101091.44
2023-05-23T11:20:06.843Z,101065.78
2023-05-23T11:22:36.664Z,101077.72
2023-05-23T11:25:08.987Z,101073.88
2023-05-23T11:27:38.815Z,101049.38
2023-05-23T11:30:09.415Z,101000.91
2023-05-23T11:32:38.257Z,101016.59
2023-05-23T11:35:08.142Z,101062.25
2023-05-23T11:37:38.948Z,101022.13
2023-05-23T11:40:30.065Z,100969.13
2023-05-23T11:42:58.421Z,100905.50
2023-05-23T11:45:26.829Z,100867.03
2023-05-23T11:47:54.683Z,100790.75
2023-05-23T11:50:24.324Z,100765.63
2023-05-23T11:52:55.549Z,100751.28
2023-05-23T11:55:24.401Z,100728.03
2023-05-23T11:57:52.770Z,100735.38
2023-05-23T12:00:21.205Z,100723.50
2023-05-23T12:02:49.593Z,100739.00
2023-05-23T12:05:17.764Z,100743.88
2023-05-23T12:07:47.032Z,100743.25
2023-05-23T12:10:17.793Z,100749.25
2023-05-23T12:12:46.224Z,100754.63
2023-05-23T12:15:14.789Z,100754.84
2023-05-23T12:17:46.197Z,100748.63
2023-05-23T12:20:14.449Z,100753.59
2023-05-23T12:22:43.105Z,100766.06
2023-05-23T12:25:11.671Z,100739.88
2023-05-23T12:27:44.025Z,100752.16
2023-05-23T12:30:14.980Z,100756.16
2023-05-23T12:32:44.397Z,100772.47
2023-05-23T12:35:14.225Z,100774.22
2023-05-23T12:37:43.109Z,100784.38
2023-05-23T12:40:13.016Z,100794.38
2023-05-23T12:42:52.567Z,100803.28
2023-05-23T12:45:20.886Z,100786.22
2023-05-23T12:47:49.841Z,100858.25
2023-05-23T12:50:19.303Z,100937.72
2023-05-23T12:52:47.106Z,101003.16
2023-05-23T12:55:15.157Z,101017.66
2023-05-23T12:57:42.988Z,101039.13
2023-05-23T13:00:13.612Z,101046.88
2023-05-23T13:02:41.450Z,101058.84
2023-05-23T13:05:09.883Z,101028.81
2023-05-23T13:07:37.977Z,101047.75
2023-05-23T13:10:06.486Z,101075.22
2023-05-23T13:12:34.761Z,101054.19
2023-05-23T13:15:02.611Z,101086.72
2023-05-23T13:17:31.817Z,101128.03
2023-05-23T13:19:59.663Z,101160.66
2023-05-23T13:22:27.502Z,101147.09
2023-05-23T13:24:55.298Z,101158.22
2023-05-23T13:27:23.058Z,101150.75
2023-05-23T13:29:50.965Z,101173.44
2023-05-23T13:32:18.755Z,101164.06
2023-05-23T13:34:47.880Z,101163.53
2023-05-23T13:37:16.227Z,101141.66
2023-05-23T13:39:43.947Z,101157.88
2023-05-23T13:42:12.062Z,101175.22
2023-05-23T13:44:39.827Z,101170.16
2023-05-23T13:47:13.044Z,101171.63
2023-05-23T13:49:41.449Z,101187.88
2023-05-23T13:52:10.672Z,101180.63
2023-05-23T13:54:38.428Z,101209.28
2023-05-23T13:57:07.639Z,101214.91
2023-05-23T13:59:35.497Z,101245.78
2023-05-23T14:02:03.321Z,101264.41
2023-05-23T14:04:31.122Z,101254.31
2023-05-23T14:06:58.914Z,101239.34
2023-05-23T14:09:28.058Z,101232.84
2023-05-23T14:11:56.000Z,101239.81
2023-05-23T14:14:23.755Z,101237.38
2023-05-23T14:16:52.402Z,101253.09
2023-05-23T14:19:20.481Z,101255.81
2023-05-23T14:21:48.367Z,101261.47
2023-05-23T14:24:16.159Z,101236.16
2023-05-23T14:26:45.287Z,101224.31
2023-05-23T14:29:13.050Z,101198.38
2023-05-23T14:31:40.855Z,101158.75
2023-05-23T14:34:08.658Z,101156.00
2023-05-23T14:36:37.046Z,101141.91
2023-05-23T14:39:05.690Z,101105.56
2023-05-23T14:41:34.272Z,101078.28
2023-05-23T14:44:04.309Z,101039.69
2023-05-23T14:46:32.253Z,101018.66
2023-05-23T14:49:00.182Z,101026.16
2023-05-23T14:51:43.217Z,101024.38
2023-05-23T14:54:15.678Z,100994.50
2023-05-23T14:56:43.629Z,100959.06
2023-05-23T14:59:12.796Z,100953.06
2023-05-23T15:01:41.039Z,100948.28
2023-05-23T15:04:10.190Z,100945.41
2023-05-23T15:06:39.174Z,100850.22
2023-05-23T15:09:07.559Z,100762.84
2023-05-23T15:11:37.924Z,100724.00
2023-05-23T15:14:05.919Z,100749.81
2023-05-23T15:16:36.840Z,100947.22
2023-05-23T15:19:05.543Z,101083.91
2023-05-23T15:21:33.455Z,101143.84
2023-05-23T15:24:01.319Z,101184.22
2023-05-23T15:26:29.307Z,101235.00
2023-05-23T15:28:57.193Z,101223.66
2023-05-23T15:31:25.030Z,101269.22
2023-05-23T15:33:54.243Z,101251.66
2023-05-23T15:36:22.444Z,101236.53
2023-05-23T15:38:50.212Z,101268.56
2023-05-23T15:41:18.101Z,101317.28
2023-05-23T15:43:45.977Z,101313.28
2023-05-23T15:46:13.784Z,101325.72
2023-05-23T15:48:41.661Z,101351.84
2023-05-23T15:51:10.829Z,101386.03
2023-05-23T15:53:58.899Z,101367.16
2023-05-23T15:56:26.470Z,101398.03
2023-05-23T15:58:54.434Z,101392.69
2023-05-23T16:01:22.473Z,101408.22
2023-05-23T16:03:50.938Z,101414.59
2023-05-23T16:06:20.119Z,101416.13
2023-05-23T16:08:47.943Z,101433.88
2023-05-23T16:11:15.837Z,101441.34
2023-05-23T16:13:43.647Z,101444.97
2023-05-23T16:16:11.521Z,101473.78
2023-05-23T16:18:39.971Z,101476.50
2023-05-23T16:21:07.866Z,101456.41
2023-05-23T16:23:37.011Z,101459.38
2023-05-23T16:26:04.994Z,101446.56
2023-05-23T16:28:32.776Z,101447.63
2023-05-23T16:31:00.682Z,101460.59
2023-05-23T16:33:28.451Z,101444.00
2023-05-23T16:35:56.495Z,101424.31
2023-05-23T16:38:24.264Z,101428.25
2023-05-23T16:40:53.393Z,101446.78
2023-05-23T16:43:21.157Z,101439.31
2023-05-23T16:45:49.193Z,101428.84
2023-05-23T16:48:17.302Z,101415.75
2023-05-23T16:50:45.377Z,101431.25
2023-05-23T16:53:13.257Z,101442.91
2023-05-23T16:55:41.405Z,101435.50
2023-05-23T16:58:12.224Z,101437.53
2023-05-23T17:00:40.078Z,101435.91
2023-05-23T17:03:08.402Z,101446.53
2023-05-23T17:05:36.336Z,101433.91
2023-05-23T17:08:04.118Z,101434.16
2023-05-23T17:10:31.936Z,101468.19
2023-05-23T17:12:59.697Z,101456.88
2023-05-23T17:15:28.867Z,101475.97
2023-05-23T17:17:56.728Z,101486.69
2023-05-23T17:20:26.750Z,101477.53
2023-05-23T17:22:54.707Z,101472.72
2023-05-23T17:25:22.556Z,101466.97
2023-05-23T17:27:50.558Z,101487.25
2023-05-23T17:30:19.198Z,101481.97
2023-05-23T17:32:49.475Z,101455.78
2023-05-23T17:35:17.264Z,101463.97
2023-05-23T17:37:45.206Z,101468.06
2023-05-23T17:40:13.996Z,101471.59
2023-05-23T17:42:42.575Z,101489.94
2023-05-23T17:45:11.019Z,101482.31
2023-05-23T17:47:39.304Z,101487.00
2023-05-23T17:50:09.756Z,101479.38
2023-05-23T17:52:37.922Z,101480.41
2023-05-23T17:55:06.507Z,101475.75
2023-05-23T17:57:34.259Z,101479.16
2023-05-23T18:00:02.066Z,101439.47
2023-05-23T18:02:29.894Z,101453.66
2023-05-23T18:04:57.644Z,101448.16
2023-05-23T18:07:26.887Z,101432.72
2023-05-23T18:09:54.653Z,101434.38
2023-05-23T18:12:22.712Z,101459.75
2023-05-23T18:14:52.132Z,101444.34
2023-05-23T18:17:20.180Z,101440.31
2023-05-23T18:19:48.100Z,101437.53
2023-05-23T18:22:16.663Z,101423.38
2023-05-23T18:24:45.825Z,101433.16
2023-05-23T18:27:13.564Z,101434.00
2023-05-23T18:29:41.556Z,101430.88
2023-05-23T18:32:09.405Z,101416.28
2023-05-23T18:34:37.710Z,101424.38
2023-05-23T18:37:05.905Z,101441.38
2023-05-23T18:39:33.718Z,101443.31
2023-05-23T18:42:02.922Z,101403.22
2023-05-23T18:44:30.701Z,101412.03
2023-05-23T18:46:58.587Z,101407.22
2023-05-23T18:49:26.494Z,101425.97
2023-05-23T18:51:54.472Z,101438.38
2023-05-23T18:54:22.218Z,101429.22
2023-05-23T18:56:50.397Z,101399.78
2023-05-23T18:59:19.820Z,101415.06
2023-05-23T19:01:47.629Z,101417.56
2023-05-23T19:04:15.896Z,101427.59
2023-05-23T19:06:43.695Z,101439.66
2023-05-23T19:09:11.667Z,101422.19
2023-05-23T19:11:39.944Z,101420.66
2023-05-23T19:14:07.704Z,101398.78
2023-05-23T19:16:37.556Z,101420.19
2023-05-23T19:19:06.066Z,101431.28
2023-05-23T19:21:33.989Z,101427.66
2023-05-23T19:24:01.993Z,101428.16
2023-05-23T19:26:30.012Z,101462.94
2023-05-23T19:28:57.793Z,101451.88
2023-05-23T19:31:25.653Z,101471.47
2023-05-23T19:33:54.877Z,101485.91
2023-05-23T19:36:22.723Z,101470.38
2023-05-23T19:38:51.873Z,101465.47
2023-05-23T19:41:20.334Z,101461.38
2023-05-23T19:43:48.165Z,101483.50
2023-05-23T19:46:16.148Z,101476.63
2023-05-23T19:48:44.794Z,101481.97
2023-05-23T19:51:14.284Z,101477.50
2023-05-23T19:53:42.408Z,101494.09
2023-05-23T19:56:10.327Z,101479.41
2023-05-23T19:58:38.071Z,101460.50
2023-05-23T20:01:06.077Z,101478.81
2023-05-23T20:03:34.322Z,101460.09
2023-05-23T20:06:02.295Z,101453.09
2023-05-23T20:08:31.445Z,101441.94
2023-05-23T20:10:59.517Z,101435.72
2023-05-23T20:13:28.044Z,101456.06
2023-05-23T20:15:56.300Z,101442.38
2023-05-23T20:18:24.264Z,101423.22
2023-05-23T20:20:52.069Z,101409.78
2023-05-23T20:23:19.872Z,101399.00
2023-05-23T20:25:49.060Z,101414.97
2023-05-23T20:28:17.978Z,101430.50
2023-05-23T20:30:46.590Z,101409.41
2023-05-23T20:33:15.819Z,101421.56
2023-05-23T20:35:44.123Z,101440.00
2023-05-23T20:38:12.094Z,101423.38
2023-05-23T20:40:40.136Z,101435.13
2023-05-23T20:43:10.422Z,101446.41
2023-05-23T20:45:38.225Z,101465.94
2023-05-23T20:48:06.219Z,101460.22
2023-05-23T20:50:35.514Z,101465.50
2023-05-23T20:53:03.634Z,101458.72
2023-05-23T20:55:34.899Z,101475.69
2023-05-23T20:58:02.764Z,101476.75
2023-05-23T21:00:31.922Z,101484.63
2023-05-23T21:02:59.811Z,101504.47
2023-05-23T21:05:27.762Z,101502.09
2023-05-23T21:07:55.526Z,101478.75
2023-05-23T21:10:23.308Z,101484.28
2023-05-23T21:12:51.667Z,101505.44
2023-05-23T21:15:20.055Z,101504.22
2023-05-23T21:17:50.729Z,101490.25
2023-05-23T21:20:20.683Z,101489.81
2023-05-23T21:22:48.793Z,101492.75
2023-05-23T21:25:16.929Z,101497.88
2023-05-23T21:27:44.752Z,101521.16
2023-05-23T21:30:14.943Z,101502.25
2023-05-23T21:32:43.539Z,101498.22
2023-05-23T21:35:12.750Z,101509.13
2023-05-23T21:37:40.611Z,101505.28
2023-05-23T21:40:09.719Z,101498.78
2023-05-23T21:42:37.522Z,101501.97
2023-05-23T21:45:06.138Z,101504.63
2023-05-23T21:47:34.034Z,101506.84
2023-05-23T21:50:04.067Z,101519.03
2023-05-23T21:52:33.240Z,101519.59
2023-05-23T21:55:01.011Z,101539.06
2023-05-23T21:57:28.848Z,101522.00
2023-05-23T21:59:56.769Z,101532.34
2023-05-23T22:02:24.602Z,101530.94
2023-05-23T22:04:52.434Z,101530.09
2023-05-23T22:07:25.119Z,101527.69
2023-05-23T22:09:56.183Z,101559.34
2023-05-23T22:12:24.005Z,101558.81
2023-05-23T22:14:51.783Z,101565.25
2023-05-23T22:17:22.389Z,101558.22
2023-05-23T22:19:51.943Z,101556.56
2023-05-23T22:22:19.936Z,101583.16
2023-05-23T22:24:47.694Z,101575.88
2023-05-23T22:27:16.823Z,101578.13
2023-05-23T22:29:45.042Z,101578.53
2023-05-23T22:32:12.862Z,101586.09
2023-05-23T22:34:40.636Z,101572.91
2023-05-23T22:37:08.394Z,101567.88
2023-05-23T22:39:36.193Z,101590.16
2023-05-23T22:42:04.347Z,101568.44
2023-05-23T22:44:33.490Z,101573.50
2023-05-23T22:47:03.669Z,101583.56
2023-05-23T22:49:32.023Z,101579.47
2023-05-23T22:52:00.581Z,101586.50
2023-05-23T22:54:28.468Z,101599.72
2023-05-23T22:56:56.230Z,101595.75
2023-05-23T22:59:24.000Z,101593.50
2023-05-23T23:01:53.137Z,101571.69
2023-05-23T23:04:23.682Z,101577.28
2023-05-23T23:06:53.725Z,101579.91
2023-05-23T23:09:21.704Z,101587.09
2023-05-23T23:11:49.459Z,101592.38
2023-05-23T23:14:17.218Z,101606.41
2023-05-23T23:16:46.310Z,101608.09
2023-05-23T23:19:15.545Z,101588.88
2023-05-23T23:21:43.388Z,101548.28
2023-05-23T23:24:11.548Z,101498.22
2023-05-23T23:26:39.535Z,101480.00
2023-05-23T23:29:07.703Z,101477.44
2023-05-23T23:31:35.700Z,101462.41
2023-05-23T23:34:03.510Z,101479.81
2023-05-23T23:36:32.617Z,101474.38
2023-05-23T23:39:00.452Z,101457.88
2023-05-23T23:41:28.261Z,101438.28
2023-05-23T23:43:56.028Z,101445.44
2023-05-23T23:46:23.845Z,101382.94
2023-05-23T23:48:51.680Z,101345.19
2023-05-23T23:51:19.520Z,101305.19
2023-05-23T23:53:50.912Z,101329.22
2023-05-23T23:56:22.204Z,101297.78
2023-05-23T23:58:49.951Z,101303.66
